Time;durP1;ratioP1;P1;durP2;ratioP2;P2;SDS_P1;SDS_P2;PMS_P1;PMS_P2;Temp;Humidity;BMP_temperature;BMP_pressure;BME280_temperature;BME280_humidity;BME280_pressure;Samples;Min_cycle;Max_cycle;Signal;HPM_P1;HPM_P2
2021/08/16 00:01:45;;;;;;;13.93;7.55;;;20.30;99.90;;;;;;5024567;28;20433;-83
2021/08/16 00:04:11;;;;;;;11.75;7.30;;;20.40;99.90;;;;;;5040994;28;20034;-83
2021/08/16 00:06:36;;;;;;;10.30;7.22;;;20.40;99.90;;;;;;5041546;28;20021;-83
2021/08/16 00:09:03;;;;;;;10.90;7.35;;;20.40;99.90;;;;;;5012938;28;20618;-83
2021/08/16 00:11:28;;;;;;;11.45;7.68;;;20.40;99.90;;;;;;5022041;28;20022;-83
2021/08/16 00:13:54;;;;;;;11.90;7.50;;;20.40;99.90;;;;;;5021951;28;20030;-83
2021/08/16 00:16:20;;;;;;;11.38;7.18;;;20.40;99.90;;;;;;5003752;28;20097;-83
2021/08/16 00:18:47;;;;;;;10.63;7.28;;;20.40;99.90;;;;;;5020435;28;20105;-83
2021/08/16 00:21:14;;;;;;;12.05;7.72;;;20.50;99.90;;;;;;5020186;28;20022;-83
2021/08/16 00:23:40;;;;;;;11.30;7.70;;;20.40;99.90;;;;;;5020668;28;20030;-83
2021/08/16 00:26:06;;;;;;;11.98;7.90;;;20.40;99.90;;;;;;5020660;28;20057;-83
2021/08/16 00:28:31;;;;;;;13.45;7.15;;;20.40;99.90;;;;;;5020192;28;20029;-83
2021/08/16 00:30:57;;;;;;;13.60;7.75;;;20.40;99.90;;;;;;5016524;28;20487;-83
2021/08/16 00:33:23;;;;;;;11.90;6.75;;;20.40;99.90;;;;;;5043437;28;20017;-83
2021/08/16 00:35:48;;;;;;;13.05;7.18;;;20.50;99.90;;;;;;5047044;28;20057;-82
2021/08/16 00:38:14;;;;;;;12.77;7.03;;;20.50;99.90;;;;;;5043385;28;20049;-83
2021/08/16 00:40:40;;;;;;;11.35;6.93;;;20.50;99.90;;;;;;5022238;28;20493;-83
2021/08/16 00:43:06;;;;;;;13.30;7.65;;;20.50;99.90;;;;;;5040110;28;20033;-83
2021/08/16 00:45:32;;;;;;;13.10;7.28;;;20.40;99.90;;;;;;5038169;28;20401;-83
2021/08/16 00:47:58;;;;;;;13.45;6.72;;;20.50;99.90;;;;;;5021667;28;20104;-83
2021/08/16 00:50:23;;;;;;;10.40;5.88;;;20.40;99.90;;;;;;5039139;28;20057;-83
2021/08/16 00:52:49;;;;;;;10.27;5.72;;;20.40;99.90;;;;;;5020022;28;20028;-83
2021/08/16 00:55:15;;;;;;;9.43;6.43;;;20.50;99.90;;;;;;5021619;28;20045;-83
2021/08/16 00:57:41;;;;;;;9.35;6.28;;;20.30;99.90;;;;;;5018631;28;20076;-83
2021/08/16 01:00:11;;;;;;;9.77;5.93;;;20.30;99.90;;;;;;5019455;28;20121;-83
2021/08/16 01:02:41;;;;;;;9.48;6.45;;;20.30;99.90;;;;;;5019009;28;20037;-83
2021/08/16 01:05:10;;;;;;;12.00;7.40;;;20.30;99.90;;;;;;5001838;28;20487;-83
2021/08/16 01:07:35;;;;;;;14.27;7.97;;;20.30;99.90;;;;;;5018804;28;20271;-82
2021/08/16 01:10:03;;;;;;;10.15;6.45;;;20.20;99.90;;;;;;5022978;28;20529;-83
2021/08/16 01:12:33;;;;;;;9.50;6.95;;;20.30;99.90;;;;;;5020892;28;20026;-83
2021/08/16 01:15:00;;;;;;;12.00;6.90;;;20.30;99.90;;;;;;5020893;28;20025;-83
2021/08/16 01:17:26;;;;;;;11.20;6.97;;;20.30;99.90;;;;;;5021911;28;20489;-83
2021/08/16 01:19:52;;;;;;;14.70;7.82;;;20.30;99.90;;;;;;5022032;28;20034;-82
2021/08/16 01:22:19;;;;;;;8.73;7.00;;;20.30;99.90;;;;;;5019142;28;20030;-82
2021/08/16 01:24:45;;;;;;;12.00;7.32;;;20.30;99.90;;;;;;5019344;28;20026;-82
2021/08/16 01:27:12;;;;;;;12.07;7.15;;;20.30;99.90;;;;;;5016307;28;20037;-82
2021/08/16 01:29:38;;;;;;;11.50;7.00;;;20.30;99.90;;;;;;5011159;28;20024;-83
2021/08/16 01:32:05;;;;;;;12.38;6.25;;;20.30;99.90;;;;;;5022138;28;20479;-83
2021/08/16 01:34:31;;;;;;;10.10;6.38;;;20.30;99.90;;;;;;5032421;28;20032;-83
2021/08/16 01:36:58;;;;;;;14.13;6.22;;;20.20;99.90;;;;;;5018013;28;20037;-83
2021/08/16 01:39:25;;;;;;;9.18;6.45;;;20.20;99.90;;;;;;5016598;28;20390;-82
2021/08/16 01:41:51;;;;;;;10.85;6.35;;;20.10;99.90;;;;;;5015619;28;20038;-83
2021/08/16 01:44:17;;;;;;;12.73;6.47;;;20.10;99.90;;;;;;5016932;28;20040;-83
2021/08/16 01:46:44;;;;;;;11.23;7.28;;;20.00;99.90;;;;;;5017759;28;20529;-82
2021/08/16 01:49:11;;;;;;;12.68;7.30;;;20.10;99.90;;;;;;5017800;28;20021;-82
2021/08/16 01:51:37;;;;;;;11.13;7.10;;;20.10;99.90;;;;;;5019016;28;20029;-83
2021/08/16 01:54:04;;;;;;;13.48;7.75;;;20.00;99.90;;;;;;5023636;28;20032;-83
2021/08/16 01:56:30;;;;;;;14.20;7.10;;;20.10;99.90;;;;;;5016028;28;20026;-83
2021/08/16 01:58:55;;;;;;;12.90;6.80;;;20.00;99.90;;;;;;5015706;28;20497;-83
2021/08/16 02:01:21;;;;;;;13.82;7.88;;;20.00;99.90;;;;;;5001764;28;20021;-83
2021/08/16 02:03:47;;;;;;;12.20;7.78;;;19.90;99.90;;;;;;5037413;28;20025;-83
2021/08/16 02:06:14;;;;;;;11.80;7.75;;;19.80;99.90;;;;;;5035922;28;20033;-82
2021/08/16 02:08:40;;;;;;;13.27;7.75;;;19.90;99.90;;;;;;5016259;28;20021;-83
2021/08/16 02:11:06;;;;;;;13.55;7.07;;;19.90;99.90;;;;;;5020413;28;20026;-83
2021/08/16 02:13:31;;;;;;;11.95;7.72;;;20.00;99.90;;;;;;5020840;28;20052;-83
2021/08/16 02:15:57;;;;;;;13.10;6.55;;;20.00;99.90;;;;;;4999011;28;20053;-82
2021/08/16 02:18:22;;;;;;;13.40;7.07;;;20.00;99.90;;;;;;5016980;28;20022;-83
2021/08/16 02:20:48;;;;;;;13.32;7.57;;;20.00;99.90;;;;;;4999508;28;20045;-82
2021/08/16 02:23:14;;;;;;;10.43;7.80;;;20.00;99.90;;;;;;5017110;28;20389;-83
2021/08/16 02:25:39;;;;;;;12.15;7.70;;;20.00;99.90;;;;;;5017620;28;20029;-83
2021/08/16 02:28:05;;;;;;;11.45;7.25;;;19.90;99.90;;;;;;5014530;28;20121;-82
2021/08/16 02:30:30;;;;;;;13.10;7.10;;;19.90;99.90;;;;;;5032960;28;20025;-82
2021/08/16 02:32:56;;;;;;;12.75;7.28;;;19.90;99.90;;;;;;5020705;28;20084;-83
2021/08/16 02:35:22;;;;;;;15.85;7.60;;;19.80;99.90;;;;;;5016807;28;20033;-83
2021/08/16 02:37:47;;;;;;;13.80;7.03;;;19.70;99.90;;;;;;4998956;28;20056;-82
2021/08/16 02:40:13;;;;;;;12.43;7.07;;;19.80;99.90;;;;;;5017004;28;20025;-83
2021/08/16 02:42:40;;;;;;;12.27;6.60;;;19.70;99.90;;;;;;5017768;28;20382;-83
2021/08/16 02:45:06;;;;;;;10.20;6.70;;;19.50;99.90;;;;;;5027896;28;20397;-83
2021/08/16 02:47:32;;;;;;;14.38;7.10;;;19.40;99.90;;;;;;5012730;28;20026;-82
2021/08/16 02:49:57;;;;;;;11.60;7.10;;;19.30;99.90;;;;;;5016384;28;20036;-82
2021/08/16 02:52:23;;;;;;;12.27;6.95;;;19.40;99.90;;;;;;4999195;28;20057;-83
2021/08/16 02:54:49;;;;;;;11.88;6.80;;;19.30;99.90;;;;;;5016314;28;20049;-82
2021/08/16 02:57:14;;;;;;;10.65;6.82;;;19.30;99.90;;;;;;5002770;28;20026;-82
2021/08/16 02:59:40;;;;;;;10.88;6.60;;;19.30;99.90;;;;;;5020454;28;20033;-82
2021/08/16 03:02:07;;;;;;;13.30;7.25;;;19.30;99.90;;;;;;5019642;28;20478;-82
2021/08/16 03:04:33;;;;;;;15.25;7.03;;;19.30;99.90;;;;;;5019882;28;20022;-82
2021/08/16 03:06:58;;;;;;;10.18;6.20;;;19.20;99.90;;;;;;5018860;28;20504;-82
2021/08/16 03:09:27;;;;;;;13.10;6.28;;;19.20;99.90;;;;;;5003053;28;20026;-82
2021/08/16 03:11:52;;;;;;;12.07;6.53;;;19.20;99.90;;;;;;5003886;28;20033;-82
2021/08/16 03:14:18;;;;;;;9.00;6.07;;;19.20;99.90;;;;;;5021472;28;20026;-82
2021/08/16 03:16:44;;;;;;;14.00;6.40;;;19.20;99.90;;;;;;5041732;28;20117;-82
2021/08/16 03:19:09;;;;;;;10.73;5.63;;;19.20;99.90;;;;;;5040717;28;20483;-82
2021/08/16 03:21:35;;;;;;;12.50;5.80;;;19.20;99.90;;;;;;5040579;28;20032;-83
2021/08/16 03:24:01;;;;;;;10.90;6.25;;;19.20;99.90;;;;;;5032341;28;20044;-82
2021/08/16 03:26:26;;;;;;;10.15;5.68;;;19.20;99.90;;;;;;5021189;28;20025;-82
2021/08/16 03:28:52;;;;;;;8.20;5.32;;;19.20;99.90;;;;;;5022258;28;20029;-82
2021/08/16 03:31:18;;;;;;;11.15;6.47;;;19.30;99.90;;;;;;5024001;28;20025;-82
2021/08/16 03:33:43;;;;;;;9.50;5.97;;;19.30;99.90;;;;;;5018166;28;20046;-82
2021/08/16 03:36:09;;;;;;;10.07;5.55;;;19.30;99.90;;;;;;5021742;28;20026;-82
2021/08/16 03:38:36;;;;;;;11.35;6.53;;;19.30;99.90;;;;;;5020895;28;20100;-82
2021/08/16 03:41:02;;;;;;;8.95;5.68;;;19.20;99.90;;;;;;5004017;28;20093;-83
2021/08/16 03:43:27;;;;;;;11.50;5.43;;;19.20;99.90;;;;;;5006700;28;20034;-82
2021/08/16 03:45:53;;;;;;;10.75;6.15;;;19.20;99.90;;;;;;5045211;23;20056;-83
2021/08/16 03:48:19;;;;;;;11.02;5.72;;;19.20;99.90;;;;;;5028377;28;20017;-83
2021/08/16 03:50:44;;;;;;;10.60;5.50;;;19.10;99.90;;;;;;5033598;28;20088;-83
2021/08/16 03:53:10;;;;;;;11.68;6.53;;;19.20;99.90;;;;;;5019807;28;20053;-83
2021/08/16 03:55:36;;;;;;;10.30;5.93;;;19.30;99.90;;;;;;5029388;28;20030;-83
2021/08/16 03:58:01;;;;;;;9.88;6.15;;;19.20;99.90;;;;;;5039846;28;20018;-83
2021/08/16 04:00:27;;;;;;;9.38;6.43;;;19.20;99.90;;;;;;5040351;28;20042;-83
2021/08/16 04:02:53;;;;;;;12.50;6.40;;;19.20;99.90;;;;;;5038000;28;20441;-83
2021/08/16 04:05:19;;;;;;;10.35;6.32;;;19.30;99.90;;;;;;5007935;28;20114;-83
2021/08/16 04:07:45;;;;;;;11.30;6.53;;;19.30;99.90;;;;;;5015624;28;20257;-83
2021/08/16 04:10:12;;;;;;;8.45;6.38;;;19.30;99.90;;;;;;5000262;28;20034;-83
2021/08/16 04:12:38;;;;;;;12.40;7.15;;;19.20;99.90;;;;;;5000380;28;20042;-82
2021/08/16 04:15:13;;;;;;;13.02;7.00;;;19.20;99.90;;;;;;5000107;28;20030;-82
2021/08/16 04:17:39;;;;;;;10.65;7.22;;;19.30;99.90;;;;;;4999979;28;20384;-82
2021/08/16 04:20:05;;;;;;;11.85;7.72;;;19.30;99.90;;;;;;5004293;28;20026;-82
2021/08/16 04:22:31;;;;;;;13.40;7.03;;;19.30;99.90;;;;;;5016938;28;20535;-83
2021/08/16 04:24:57;;;;;;;14.70;8.07;;;19.30;99.90;;;;;;5015342;28;20038;-83
2021/08/16 04:27:22;;;;;;;11.77;7.80;;;19.30;99.90;;;;;;5000379;28;20081;-83
2021/08/16 04:29:48;;;;;;;11.65;7.45;;;19.30;99.90;;;;;;4999651;28;20041;-83
2021/08/16 04:32:13;;;;;;;14.25;8.40;;;19.20;99.90;;;;;;5014299;28;20022;-83
2021/08/16 04:34:39;;;;;;;13.25;8.25;;;19.30;99.90;;;;;;4999513;28;20022;-83
2021/08/16 04:37:05;;;;;;;15.77;7.63;;;19.30;99.90;;;;;;4999717;28;20034;-83
2021/08/16 04:39:30;;;;;;;11.88;7.70;;;19.30;99.90;;;;;;5014244;28;20390;-82
2021/08/16 04:41:56;;;;;;;12.75;7.63;;;19.30;99.90;;;;;;4999312;28;20605;-82
2021/08/16 04:44:21;;;;;;;12.90;7.13;;;19.30;99.90;;;;;;5000310;28;20030;-83
2021/08/16 04:46:47;;;;;;;15.95;7.03;;;19.30;99.90;;;;;;4999350;28;20069;-83
2021/08/16 04:49:13;;;;;;;13.73;6.72;;;19.40;99.90;;;;;;4998694;28;20053;-83
2021/08/16 04:51:38;;;;;;;14.88;6.82;;;19.40;99.90;;;;;;5000083;28;20030;-83
2021/08/16 04:54:04;;;;;;;13.85;6.35;;;19.40;99.90;;;;;;5016741;28;20073;-83
2021/08/16 04:56:30;;;;;;;11.80;6.32;;;19.50;99.90;;;;;;5006815;28;20491;-83
2021/08/16 04:58:57;;;;;;;14.70;5.90;;;19.40;99.90;;;;;;4999128;28;20031;-83
2021/08/16 05:01:23;;;;;;;14.23;6.65;;;19.50;99.90;;;;;;5002792;28;20061;-83
2021/08/16 05:03:49;;;;;;;9.38;5.63;;;19.50;99.90;;;;;;5005253;28;20086;-84
2021/08/16 05:06:15;;;;;;;11.23;5.80;;;19.50;99.90;;;;;;5006120;28;20180;-83
2021/08/16 05:08:41;;;;;;;12.13;6.03;;;19.50;99.90;;;;;;5002182;28;20090;-83
2021/08/16 05:11:07;;;;;;;9.52;5.90;;;19.50;99.90;;;;;;5000259;28;20072;-82
2021/08/16 05:13:33;;;;;;;10.50;5.18;;;19.60;99.90;;;;;;5000038;28;20049;-83
2021/08/16 05:15:59;;;;;;;10.13;5.60;;;19.60;99.90;;;;;;5014570;28;20102;-82
2021/08/16 05:18:25;;;;;;;9.35;5.43;;;19.60;99.90;;;;;;5014421;28;20041;-82
2021/08/16 05:20:51;;;;;;;10.02;5.30;;;19.70;99.90;;;;;;5014816;28;20026;-83
2021/08/16 05:23:20;;;;;;;11.23;5.05;;;19.70;99.90;;;;;;4999190;28;20037;-82
2021/08/16 05:25:46;;;;;;;6.30;4.20;;;19.70;99.90;;;;;;4999111;28;20034;-83
2021/08/16 05:28:12;;;;;;;13.18;5.18;;;19.70;99.90;;;;;;4998883;28;20030;-83
2021/08/16 05:30:38;;;;;;;9.20;5.32;;;19.70;99.90;;;;;;5011594;28;20053;-83
2021/08/16 05:33:04;;;;;;;8.05;4.38;;;19.60;99.90;;;;;;4998213;28;20031;-83
2021/08/16 05:35:30;;;;;;;11.73;4.80;;;19.60;99.90;;;;;;4997581;28;20035;-83
2021/08/16 05:37:57;;;;;;;8.30;4.18;;;19.60;99.90;;;;;;4998304;28;20507;-83
2021/08/16 05:40:23;;;;;;;13.52;4.78;;;19.60;99.90;;;;;;4997478;28;20023;-83
2021/08/16 05:42:48;;;;;;;7.50;4.32;;;19.50;99.90;;;;;;5001558;28;20022;-83
2021/08/16 05:45:14;;;;;;;9.65;4.65;;;19.50;99.90;;;;;;5013511;28;20087;-83
2021/08/16 05:47:40;;;;;;;9.23;4.32;;;19.50;99.90;;;;;;5012467;28;20106;-82
2021/08/16 05:50:06;;;;;;;9.75;4.40;;;19.50;99.90;;;;;;5030432;28;20032;-84
2021/08/16 05:52:33;;;;;;;8.07;4.05;;;19.50;99.90;;;;;;5014352;28;20029;-83
2021/08/16 05:54:59;;;;;;;10.32;4.50;;;19.40;99.90;;;;;;5017574;28;20058;-82
2021/08/16 05:57:24;;;;;;;8.25;4.15;;;19.40;99.90;;;;;;5030695;28;20018;-83
2021/08/16 05:59:50;;;;;;;8.50;4.00;;;19.50;99.90;;;;;;5012517;28;20022;-83
2021/08/16 06:02:15;;;;;;;10.63;4.00;;;19.50;99.90;;;;;;5012142;28;20437;-83
2021/08/16 06:04:41;;;;;;;10.45;3.70;;;19.50;99.90;;;;;;5011326;28;20026;-83
2021/08/16 06:07:07;;;;;;;8.50;4.25;;;19.60;99.90;;;;;;5015836;28;20157;-83
2021/08/16 06:09:32;;;;;;;8.55;3.90;;;19.60;99.90;;;;;;5012339;28;20125;-83
2021/08/16 06:11:58;;;;;;;12.40;4.22;;;19.50;99.90;;;;;;5029868;28;20030;-83
2021/08/16 06:14:24;;;;;;;9.68;4.15;;;19.60;99.90;;;;;;5012940;28;20021;-83
2021/08/16 06:16:49;;;;;;;11.57;4.25;;;19.70;99.90;;;;;;5012870;28;20029;-83
2021/08/16 06:19:15;;;;;;;8.88;3.80;;;19.80;99.90;;;;;;5013293;28;20117;-83
2021/08/16 06:21:42;;;;;;;10.40;4.10;;;20.00;99.90;;;;;;5016424;28;20029;-83
2021/08/16 06:24:10;;;;;;;9.68;3.63;;;20.20;99.90;;;;;;5017873;28;20041;-83
2021/08/16 06:26:36;;;;;;;10.88;3.65;;;20.40;99.90;;;;;;5016073;28;20022;-83
2021/08/16 06:29:01;;;;;;;10.35;3.72;;;20.50;99.90;;;;;;5011029;28;20093;-83
2021/08/16 06:31:27;;;;;;;7.50;3.72;;;20.60;99.90;;;;;;5015488;28;20026;-82
2021/08/16 06:33:53;;;;;;;8.63;3.25;;;20.50;99.90;;;;;;5012684;28;20532;-82
2021/08/16 06:36:19;;;;;;;8.52;3.42;;;20.50;99.90;;;;;;5028187;28;20128;-83
2021/08/16 06:38:46;;;;;;;8.02;3.40;;;20.50;99.90;;;;;;5012618;28;20086;-83
2021/08/16 06:41:15;;;;;;;9.35;3.70;;;20.70;99.90;;;;;;5014963;28;20080;-83
2021/08/16 06:43:42;;;;;;;8.05;3.50;;;20.80;99.90;;;;;;5011907;28;20093;-83
2021/08/16 06:46:08;;;;;;;8.38;3.53;;;20.90;99.90;;;;;;5011643;28;20038;-83
2021/08/16 06:48:33;;;;;;;9.27;4.18;;;21.00;99.90;;;;;;5029175;28;20094;-83
2021/08/16 06:50:59;;;;;;;7.40;3.60;;;21.10;99.90;;;;;;5004033;28;20031;-82
2021/08/16 06:53:27;;;;;;;6.03;3.15;;;21.20;99.90;;;;;;5016862;28;20394;-88
2021/08/16 06:55:53;;;;;;;5.63;3.30;;;21.10;99.90;;;;;;5013202;28;20021;-87
2021/08/16 06:58:20;;;;;;;7.50;3.70;;;21.00;99.90;;;;;;5011409;28;20090;-88
2021/08/16 07:00:46;;;;;;;8.00;3.40;;;20.90;99.90;;;;;;5021214;28;20022;-88
2021/08/16 07:03:13;;;;;;;8.25;2.83;;;20.80;99.90;;;;;;5015944;28;20610;-88
2021/08/16 07:05:43;;;;;;;6.13;3.47;;;20.70;99.90;;;;;;5016665;28;20021;-87
2021/08/16 07:08:10;;;;;;;7.57;3.72;;;20.70;99.90;;;;;;5014825;28;20022;-88
2021/08/16 07:10:36;;;;;;;7.53;3.38;;;20.70;99.90;;;;;;5023267;28;20033;-88
2021/08/16 07:13:02;;;;;;;7.95;2.90;;;20.60;99.90;;;;;;5033307;28;20125;-86
2021/08/16 07:15:27;;;;;;;8.07;3.00;;;20.60;99.90;;;;;;5017133;28;20028;-87
2021/08/16 07:17:53;;;;;;;6.80;2.50;;;20.50;99.90;;;;;;5035670;28;20502;-87
2021/08/16 07:20:19;;;;;;;6.43;3.15;;;20.50;99.90;;;;;;5035651;28;20030;-87
2021/08/16 07:22:45;;;;;;;6.88;2.78;;;20.60;99.90;;;;;;5037785;28;20041;-88
2021/08/16 07:25:10;;;;;;;8.02;2.70;;;20.70;99.90;;;;;;5026647;28;20049;-87
2021/08/16 07:27:36;;;;;;;7.38;2.72;;;20.70;99.90;;;;;;5042788;28;20022;-88
2021/08/16 07:30:02;;;;;;;10.40;2.95;;;20.70;99.90;;;;;;5026963;28;20057;-88
2021/08/16 07:32:28;;;;;;;7.15;2.33;;;20.60;99.90;;;;;;5022213;28;20046;-87
2021/08/16 07:34:53;;;;;;;6.93;2.72;;;20.60;99.90;;;;;;5023185;28;20030;-87
2021/08/16 07:37:19;;;;;;;6.93;2.60;;;20.40;99.90;;;;;;5034657;28;20026;-87
2021/08/16 07:39:45;;;;;;;6.20;2.67;;;20.50;99.90;;;;;;5033546;28;20022;-87
2021/08/16 07:42:10;;;;;;;6.43;2.67;;;20.70;99.90;;;;;;5032346;28;20097;-87
2021/08/16 07:44:36;;;;;;;5.40;2.50;;;20.70;99.90;;;;;;5014271;28;20026;-86
2021/08/16 07:47:03;;;;;;;7.15;2.47;;;20.70;99.90;;;;;;5017975;28;20034;-85
2021/08/16 07:49:30;;;;;;;6.40;2.25;;;20.60;99.90;;;;;;5019151;28;20048;-86
2021/08/16 07:51:56;;;;;;;6.95;3.05;;;20.70;99.90;;;;;;5009123;28;20044;-86
2021/08/16 07:54:22;;;;;;;6.65;2.45;;;20.70;99.90;;;;;;5012908;28;20028;-86
2021/08/16 07:56:50;;;;;;;6.88;2.38;;;20.70;99.90;;;;;;5012679;28;20104;-85
2021/08/16 07:59:17;;;;;;;4.70;2.28;;;20.60;99.90;;;;;;5009904;28;20026;-87
2021/08/16 08:01:42;;;;;;;10.15;2.30;;;20.70;99.90;;;;;;5013543;28;20399;-85
2021/08/16 08:04:08;;;;;;;6.57;2.40;;;20.70;99.90;;;;;;5017171;28;20105;-86
2021/08/16 08:06:33;;;;;;;8.68;2.95;;;20.90;99.90;;;;;;5016325;28;20075;-85
2021/08/16 08:09:00;;;;;;;6.10;2.05;;;21.00;99.90;;;;;;5018085;28;20041;-86
2021/08/16 08:11:26;;;;;;;7.07;2.55;;;21.10;99.90;;;;;;5012762;28;20022;-86
2021/08/16 08:13:52;;;;;;;5.85;2.40;;;21.00;99.90;;;;;;5030886;28;20037;-86
2021/08/16 08:16:17;;;;;;;7.00;2.13;;;21.00;99.90;;;;;;5034625;28;20064;-86
2021/08/16 08:18:43;;;;;;;6.65;2.22;;;21.00;99.90;;;;;;5019956;28;20038;-86
2021/08/16 08:21:09;;;;;;;5.50;2.30;;;20.90;99.90;;;;;;5019353;28;20028;-86
2021/08/16 08:23:36;;;;;;;4.05;2.00;;;21.00;99.90;;;;;;5015884;28;20058;-86
2021/08/16 08:26:02;;;;;;;7.68;2.40;;;21.10;99.90;;;;;;5015479;28;20018;-86
2021/08/16 08:28:28;;;;;;;8.02;2.22;;;21.20;99.90;;;;;;5015995;28;20019;-86
2021/08/16 08:30:53;;;;;;;4.88;1.95;;;21.40;99.90;;;;;;5031463;28;20021;-86
2021/08/16 08:33:19;;;;;;;4.63;2.30;;;21.70;99.90;;;;;;5038194;28;20018;-86
2021/08/16 08:35:46;;;;;;;5.28;2.50;;;21.80;99.90;;;;;;5025354;28;20105;-86
2021/08/16 08:38:12;;;;;;;6.15;2.80;;;21.90;99.90;;;;;;5022977;28;20026;-86
2021/08/16 08:40:39;;;;;;;7.30;2.13;;;22.00;99.90;;;;;;5026963;28;20022;-86
2021/08/16 08:43:09;;;;;;;7.50;2.65;;;22.00;99.90;;;;;;5015289;28;20045;-85
2021/08/16 08:45:36;;;;;;;6.65;2.90;;;22.00;99.90;;;;;;5033704;28;20034;-86
2021/08/16 08:48:03;;;;;;;6.20;2.70;;;22.00;99.90;;;;;;5028419;28;20025;-86
2021/08/16 08:50:29;;;;;;;7.20;2.65;;;22.30;99.90;;;;;;5023599;28;20045;-85
2021/08/16 08:53:00;;;;;;;9.07;2.63;;;22.40;99.90;;;;;;5036837;28;20026;-85
2021/08/16 08:55:26;;;;;;;6.32;2.45;;;22.50;99.90;;;;;;5039272;28;20076;-86
2021/08/16 08:57:52;;;;;;;5.68;2.58;;;22.50;99.90;;;;;;5008963;28;20034;-85
2021/08/16 09:00:19;;;;;;;7.50;2.90;;;22.50;99.90;;;;;;5000090;28;20494;-85
2021/08/16 09:02:57;;;;;;;6.63;2.90;;;22.60;99.90;;;;;;5019508;28;20435;-85
2021/08/16 09:05:23;;;;;;;7.95;3.38;;;23.00;99.90;;;;;;5022327;28;20549;-84
2021/08/16 09:07:48;;;;;;;7.38;3.17;;;23.30;99.90;;;;;;5016180;28;20026;-85
2021/08/16 09:10:15;;;;;;;7.18;3.25;;;23.20;99.90;;;;;;5005251;28;20030;-85
2021/08/16 09:12:43;;;;;;;6.43;2.92;;;23.00;99.90;;;;;;5006412;28;20030;-85
2021/08/16 09:15:21;;;;;;;7.20;3.17;;;22.80;99.90;;;;;;5004311;28;20018;-85
2021/08/16 09:17:47;;;;;;;7.10;3.10;;;22.60;99.90;;;;;;5000515;28;20034;-85
2021/08/16 09:20:25;;;;;;;6.38;3.10;;;22.10;99.90;;;;;;5002282;28;20045;-85
2021/08/16 09:23:02;;;;;;;7.80;3.10;;;22.00;99.90;;;;;;5047876;28;20051;-85
2021/08/16 09:25:38;;;;;;;7.40;3.10;;;21.80;99.90;;;;;;5022964;28;20034;-85
2021/08/16 09:28:05;;;;;;;7.82;3.22;;;22.00;99.90;;;;;;5006191;28;20030;-85
2021/08/16 09:30:40;;;;;;;9.38;2.80;;;22.00;99.90;;;;;;5016164;28;20022;-85
2021/08/16 09:33:12;;;;;;;10.30;3.78;;;21.80;99.90;;;;;;4999143;28;20030;-84
2021/08/16 09:35:55;;;;;;;7.03;3.30;;;21.80;99.90;;;;;;5021263;28;20022;-84
2021/08/16 09:38:34;;;;;;;6.75;2.97;;;22.10;99.90;;;;;;5018480;28;20112;-85
2021/08/16 09:41:01;;;;;;;6.00;2.85;;;21.90;99.90;;;;;;5023977;28;20034;-85
2021/08/16 09:43:28;;;;;;;6.15;2.97;;;22.10;99.90;;;;;;5003839;28;20038;-85
2021/08/16 09:45:53;;;;;;;8.65;3.20;;;22.20;99.90;;;;;;5012202;23;20052;-87
2021/08/16 09:48:25;;;;;;;7.68;3.35;;;22.30;99.90;;;;;;5010740;28;20022;-87
2021/08/16 09:50:54;;;;;;;9.13;3.10;;;22.10;99.90;;;;;;4994642;28;20026;-87
2021/08/16 09:53:21;;;;;;;9.45;3.47;;;22.20;99.90;;;;;;5011794;28;20029;-87
2021/08/16 09:55:50;;;;;;;7.75;2.60;;;22.50;99.90;;;;;;5000802;28;20025;-86
2021/08/16 09:58:17;;;;;;;9.23;2.92;;;22.40;99.90;;;;;;5031547;28;20088;-87
2021/08/16 10:00:45;;;;;;;6.38;2.72;;;22.50;99.90;;;;;;5013963;28;20032;-86
2021/08/16 10:03:12;;;;;;;6.32;2.60;;;22.80;99.90;;;;;;5007868;28;20113;-86
2021/08/16 10:05:49;;;;;;;6.80;2.80;;;22.70;99.90;;;;;;4993871;28;20061;-86
2021/08/16 10:08:21;;;;;;;7.07;2.72;;;22.50;99.90;;;;;;4993527;28;20482;-87
2021/08/16 10:10:48;;;;;;;6.90;2.65;;;22.80;99.90;;;;;;5012151;28;20414;-86
2021/08/16 10:13:14;;;;;;;6.75;2.65;;;22.70;99.90;;;;;;4994688;28;20140;-86
2021/08/16 10:15:43;;;;;;;7.22;2.50;;;22.70;99.90;;;;;;4994098;28;20164;-87
2021/08/16 10:18:12;;;;;;;7.30;2.90;;;22.60;99.90;;;;;;4993817;28;20029;-87
2021/08/16 10:20:39;;;;;;;6.97;2.67;;;22.80;99.90;;;;;;4993758;28;20061;-87
2021/08/16 10:23:16;;;;;;;9.20;2.30;;;22.60;99.90;;;;;;5011629;28;20056;-87
2021/08/16 10:25:48;;;;;;;5.82;2.30;;;22.50;99.90;;;;;;4994181;28;20030;-88
2021/08/16 10:28:33;;;;;;;6.93;2.53;;;22.40;99.90;;;;;;5011085;28;20022;-87
2021/08/16 10:31:03;;;;;;;6.97;2.47;;;22.20;99.90;;;;;;5011476;28;20053;-87
2021/08/16 10:33:29;;;;;;;6.57;2.40;;;22.30;99.90;;;;;;5000161;28;20021;-87
2021/08/16 10:35:55;;;;;;;6.80;2.42;;;22.30;99.90;;;;;;5012321;28;20026;-88
2021/08/16 10:38:23;;;;;;;8.65;2.30;;;22.20;99.90;;;;;;4998668;28;20022;-88
2021/08/16 10:40:52;;;;;;;5.35;1.95;;;22.20;99.90;;;;;;5000096;28;20147;-87
2021/08/16 10:43:19;;;;;;;9.95;2.70;;;22.20;99.90;;;;;;5034533;28;20422;-87
2021/08/16 10:45:52;;;;;;;6.53;2.30;;;22.10;99.90;;;;;;5010662;28;20060;-87
2021/08/16 10:48:26;;;;;;;6.65;2.25;;;22.00;99.90;;;;;;5007777;28;20033;-87
2021/08/16 10:51:06;;;;;;;6.25;2.10;;;22.10;99.90;;;;;;5013733;28;20014;-87
2021/08/16 10:53:33;;;;;;;6.22;2.33;;;22.60;99.90;;;;;;5008351;28;20022;-87
2021/08/16 10:55:59;;;;;;;5.40;2.00;;;22.90;99.90;;;;;;5010583;28;20025;-88
2021/08/16 10:58:25;;;;;;;5.95;2.25;;;23.10;99.90;;;;;;5016360;28;20040;-86
2021/08/16 11:00:51;;;;;;;5.78;2.30;;;23.10;99.90;;;;;;5016626;28;20022;-86
2021/08/16 11:03:24;;;;;;;7.40;2.60;;;22.90;99.90;;;;;;5016377;28;20025;-87
2021/08/16 11:05:50;;;;;;;5.78;2.13;;;22.60;99.90;;;;;;5012745;28;20030;-87
2021/08/16 11:08:15;;;;;;;7.72;2.40;;;22.50;99.90;;;;;;5031977;28;20040;-87
2021/08/16 11:10:43;;;;;;;8.80;2.13;;;22.70;99.90;;;;;;5021675;28;20029;-87
2021/08/16 11:13:20;;;;;;;7.60;2.30;;;22.60;99.90;;;;;;5014076;28;20130;-86
2021/08/16 11:15:48;;;;;;;5.32;1.90;;;22.70;99.90;;;;;;5029194;28;20076;-87
2021/08/16 11:18:19;;;;;;;6.35;2.25;;;22.80;99.90;;;;;;5028771;28;20025;-87
2021/08/16 11:20:46;;;;;;;7.38;2.35;;;23.10;99.90;;;;;;5009741;28;20028;-86
2021/08/16 11:23:13;;;;;;;7.32;2.65;;;23.40;99.90;;;;;;5011068;28;20029;-87
2021/08/16 11:25:57;;;;;;;6.35;2.47;;;23.70;99.90;;;;;;5010809;28;20040;-88
2021/08/16 11:28:25;;;;;;;8.60;2.22;;;23.70;99.90;;;;;;5029538;28;20088;-86
2021/08/16 11:31:01;;;;;;;5.10;2.00;;;23.70;99.90;;;;;;5008603;28;20473;-87
2021/08/16 11:33:27;;;;;;;7.32;2.17;;;23.60;99.90;;;;;;5001179;28;20152;-86
2021/08/16 11:36:10;;;;;;;5.63;2.28;;;23.10;99.80;;;;;;5007442;28;20108;-86
2021/08/16 11:38:38;;;;;;;7.85;2.50;;;22.80;99.90;;;;;;5026080;28;20025;-87
2021/08/16 11:41:15;;;;;;;7.35;2.47;;;22.70;99.90;;;;;;5011440;28;20014;-87
2021/08/16 11:43:40;;;;;;;6.15;2.42;;;23.20;99.90;;;;;;5018081;28;20417;-87
2021/08/16 11:46:13;;;;;;;5.53;2.17;;;23.70;99.90;;;;;;5017029;28;20034;-87
2021/08/16 11:48:42;;;;;;;8.02;2.00;;;24.50;99.70;;;;;;5015296;28;20124;-87
2021/08/16 11:51:08;;;;;;;7.00;2.20;;;24.60;98.80;;;;;;5015251;28;20148;-87
2021/08/16 11:53:42;;;;;;;6.18;2.28;;;25.10;97.70;;;;;;5020403;28;20079;-85
2021/08/16 11:56:08;;;;;;;6.05;2.17;;;25.30;97.60;;;;;;4997052;28;20018;-86
2021/08/16 11:58:35;;;;;;;5.75;2.03;;;25.40;97.10;;;;;;5015447;28;20040;-86
2021/08/16 12:01:01;;;;;;;6.97;2.22;;;25.10;97.50;;;;;;5013614;28;20482;-88
2021/08/16 12:03:27;;;;;;;7.90;2.25;;;24.70;97.50;;;;;;5015922;28;20561;-87
2021/08/16 12:05:53;;;;;;;6.45;2.50;;;24.80;97.80;;;;;;5001581;28;20109;-88
2021/08/16 12:08:22;;;;;;;8.80;2.40;;;24.60;97.60;;;;;;5023008;28;20034;-88
2021/08/16 12:10:47;;;;;;;7.15;2.20;;;25.10;97.60;;;;;;5025894;28;20085;-86
2021/08/16 12:13:13;;;;;;;4.80;1.83;;;25.70;97.50;;;;;;5036421;28;20109;-88
2021/08/16 12:15:44;;;;;;;5.95;1.77;;;25.60;95.90;;;;;;5006597;28;20064;-88
2021/08/16 12:18:10;;;;;;;4.63;2.03;;;25.40;95.50;;;;;;5027045;28;20083;-89
2021/08/16 12:20:48;;;;;;;5.95;2.30;;;25.50;95.70;;;;;;5031184;28;20120;-88
2021/08/16 12:23:30;;;;;;;6.75;2.10;;;25.30;95.40;;;;;;5031748;28;20025;-87
2021/08/16 12:25:57;;;;;;;5.30;2.40;;;24.90;94.30;;;;;;5005204;28;20033;-88
2021/08/16 12:28:40;;;;;;;6.13;2.13;;;25.40;94.70;;;;;;5021317;28;20656;-87
2021/08/16 12:31:14;;;;;;;4.68;2.00;;;25.50;94.20;;;;;;5014545;28;20045;-88
2021/08/16 12:33:55;;;;;;;6.22;1.88;;;25.80;93.90;;;;;;5028926;28;20048;-88
2021/08/16 12:36:26;;;;;;;5.32;2.15;;;26.20;94.50;;;;;;5007563;28;20067;-81
2021/08/16 12:38:56;;;;;;;;;;;26.50;93.70;;;;;;5041198;28;20443;-80
2021/08/16 12:41:24;;;;;;;5.65;2.03;;;26.30;93.00;;;;;;5043684;28;20373;-79
2021/08/16 12:43:51;;;;;;;6.45;2.05;;;26.00;93.90;;;;;;5039461;28;20017;-79